sensor_id;sensor_type;location;lat;lon;timestamp;P1;durP1;ratioP1;P2;durP2;ratioP2
17024;SDS011;8629;42.496;25.620;2023-08-01T00:01:50;4.13;;;3.83;;
17024;SDS011;8629;42.496;25.620;2023-08-01T00:04:17;3.83;;;3.53;;
17024;SDS011;8629;42.496;25.620;2023-08-01T00:06:44;3.13;;;2.93;;
17024;SDS011;8629;42.496;25.620;2023-08-01T00:09:10;3.60;;;3.30;;
17024;SDS011;8629;42.496;25.620;2023-08-01T00:11:37;4.00;;;3.70;;
17024;SDS011;8629;42.496;25.620;2023-08-01T00:14:04;5.87;;;3.57;;
17024;SDS011;8629;42.496;25.620;2023-08-01T00:16:32;3.13;;;2.93;;
17024;SDS011;8629;42.496;25.620;2023-08-01T00:18:59;3.10;;;2.90;;
17024;SDS011;8629;42.496;25.620;2023-08-01T00:21:27;3.30;;;3.00;;
17024;SDS011;8629;42.496;25.620;2023-08-01T00:23:55;3.40;;;3.00;;
17024;SDS011;8629;42.496;25.620;2023-08-01T00:26:22;7.93;;;2.80;;
17024;SDS011;8629;42.496;25.620;2023-08-01T00:28:49;4.33;;;4.00;;
17024;SDS011;8629;42.496;25.620;2023-08-01T00:31:16;8.90;;;8.10;;
17024;SDS011;8629;42.496;25.620;2023-08-01T00:33:44;8.10;;;7.40;;
17024;SDS011;8629;42.496;25.620;2023-08-01T00:36:11;7.97;;;7.27;;
17024;SDS011;8629;42.496;25.620;2023-08-01T00:38:38;7.07;;;6.47;;
17024;SDS011;8629;42.496;25.620;2023-08-01T00:41:07;5.60;;;5.10;;
17024;SDS011;8629;42.496;25.620;2023-08-01T00:43:33;5.23;;;4.83;;
17024;SDS011;8629;42.496;25.620;2023-08-01T00:46:00;4.93;;;4.33;;
17024;SDS011;8629;42.496;25.620;2023-08-01T00:48:30;4.33;;;4.03;;
17024;SDS011;8629;42.496;25.620;2023-08-01T00:50:59;4.07;;;3.77;;
17024;SDS011;8629;42.496;25.620;2023-08-01T00:53:27;4.00;;;3.70;;
17024;SDS011;8629;42.496;25.620;2023-08-01T00:55:55;4.17;;;3.77;;
17024;SDS011;8629;42.496;25.620;2023-08-01T00:58:23;3.17;;;2.90;;
17024;SDS011;8629;42.496;25.620;2023-08-01T01:00:50;4.10;;;3.80;;
17024;SDS011;8629;42.496;25.620;2023-08-01T01:03:16;4.00;;;3.70;;
17024;SDS011;8629;42.496;25.620;2023-08-01T01:05:46;3.37;;;3.17;;
17024;SDS011;8629;42.496;25.620;2023-08-01T01:08:17;3.27;;;3.07;;
17024;SDS011;8629;42.496;25.620;2023-08-01T01:10:44;4.73;;;3.83;;
17024;SDS011;8629;42.496;25.620;2023-08-01T01:13:11;3.60;;;3.30;;
17024;SDS011;8629;42.496;25.620;2023-08-01T01:15:37;3.00;;;2.80;;
17024;SDS011;8629;42.496;25.620;2023-08-01T01:18:04;5.73;;;3.10;;
17024;SDS011;8629;42.496;25.620;2023-08-01T01:20:33;2.93;;;2.73;;
17024;SDS011;8629;42.496;25.620;2023-08-01T01:23:01;3.30;;;3.10;;
17024;SDS011;8629;42.496;25.620;2023-08-01T01:25:30;3.00;;;2.80;;
17024;SDS011;8629;42.496;25.620;2023-08-01T01:27:57;3.30;;;3.00;;
17024;SDS011;8629;42.496;25.620;2023-08-01T01:30:24;3.83;;;3.33;;
17024;SDS011;8629;42.496;25.620;2023-08-01T01:32:52;3.80;;;3.50;;
17024;SDS011;8629;42.496;25.620;2023-08-01T01:35:19;7.73;;;3.63;;
17024;SDS011;8629;42.496;25.620;2023-08-01T01:37:47;2.80;;;2.60;;
17024;SDS011;8629;42.496;25.620;2023-08-01T01:40:14;3.03;;;2.57;;
17024;SDS011;8629;42.496;25.620;2023-08-01T01:42:41;3.00;;;2.80;;
17024;SDS011;8629;42.496;25.620;2023-08-01T01:45:08;3.37;;;3.17;;
17024;SDS011;8629;42.496;25.620;2023-08-01T01:47:35;3.47;;;3.23;;
17024;SDS011;8629;42.496;25.620;2023-08-01T01:50:02;3.43;;;3.13;;
17024;SDS011;8629;42.496;25.620;2023-08-01T01:52:30;3.17;;;2.97;;
17024;SDS011;8629;42.496;25.620;2023-08-01T01:54:59;3.40;;;3.10;;
17024;SDS011;8629;42.496;25.620;2023-08-01T01:57:26;3.67;;;3.37;;
17024;SDS011;8629;42.496;25.620;2023-08-01T01:59:52;3.50;;;3.20;;
17024;SDS011;8629;42.496;25.620;2023-08-01T02:02:19;3.57;;;3.27;;
17024;SDS011;8629;42.496;25.620;2023-08-01T02:04:46;3.50;;;3.20;;
17024;SDS011;8629;42.496;25.620;2023-08-01T02:07:14;3.90;;;2.87;;
17024;SDS011;8629;42.496;25.620;2023-08-01T02:09:41;3.10;;;2.90;;
17024;SDS011;8629;42.496;25.620;2023-08-01T02:12:09;3.10;;;2.80;;
17024;SDS011;8629;42.496;25.620;2023-08-01T02:14:39;4.00;;;3.17;;
17024;SDS011;8629;42.496;25.620;2023-08-01T02:17:05;3.50;;;3.20;;
17024;SDS011;8629;42.496;25.620;2023-08-01T02:19:33;4.37;;;3.97;;
17024;SDS011;8629;42.496;25.620;2023-08-01T02:21:59;4.47;;;4.07;;
17024;SDS011;8629;42.496;25.620;2023-08-01T02:24:26;4.63;;;4.23;;
17024;SDS011;8629;42.496;25.620;2023-08-01T02:26:53;3.97;;;3.67;;
17024;SDS011;8629;42.496;25.620;2023-08-01T02:29:21;5.17;;;3.63;;
17024;SDS011;8629;42.496;25.620;2023-08-01T02:31:48;3.83;;;3.53;;
17024;SDS011;8629;42.496;25.620;2023-08-01T02:34:14;4.70;;;4.20;;
17024;SDS011;8629;42.496;25.620;2023-08-01T02:36:41;3.40;;;3.20;;
17024;SDS011;8629;42.496;25.620;2023-08-01T02:39:08;3.17;;;2.87;;
17024;SDS011;8629;42.496;25.620;2023-08-01T02:41:35;3.47;;;3.20;;
17024;SDS011;8629;42.496;25.620;2023-08-01T02:44:02;3.30;;;3.10;;
17024;SDS011;8629;42.496;25.620;2023-08-01T02:46:30;4.73;;;3.00;;
17024;SDS011;8629;42.496;25.620;2023-08-01T02:48:57;3.27;;;3.03;;
17024;SDS011;8629;42.496;25.620;2023-08-01T02:51:23;3.57;;;3.00;;
17024;SDS011;8629;42.496;25.620;2023-08-01T02:53:50;3.80;;;3.50;;
17024;SDS011;8629;42.496;25.620;2023-08-01T02:56:17;2.80;;;2.60;;
17024;SDS011;8629;42.496;25.620;2023-08-01T02:58:44;3.33;;;2.60;;
17024;SDS011;8629;42.496;25.620;2023-08-01T03:01:11;2.87;;;2.67;;
17024;SDS011;8629;42.496;25.620;2023-08-01T03:03:40;3.10;;;2.90;;
17024;SDS011;8629;42.496;25.620;2023-08-01T03:06:06;4.63;;;3.03;;
17024;SDS011;8629;42.496;25.620;2023-08-01T03:08:33;4.07;;;3.33;;
17024;SDS011;8629;42.496;25.620;2023-08-01T03:11:00;3.07;;;2.87;;
17024;SDS011;8629;42.496;25.620;2023-08-01T03:13:27;3.97;;;3.20;;
17024;SDS011;8629;42.496;25.620;2023-08-01T03:15:54;3.70;;;3.40;;
17024;SDS011;8629;42.496;25.620;2023-08-01T03:18:21;3.83;;;3.53;;
17024;SDS011;8629;42.496;25.620;2023-08-01T03:20:49;3.30;;;3.00;;
17024;SDS011;8629;42.496;25.620;2023-08-01T03:23:16;3.80;;;3.50;;
17024;SDS011;8629;42.496;25.620;2023-08-01T03:25:43;4.10;;;3.70;;
17024;SDS011;8629;42.496;25.620;2023-08-01T03:28:10;5.70;;;3.90;;
17024;SDS011;8629;42.496;25.620;2023-08-01T03:30:37;3.83;;;3.53;;
17024;SDS011;8629;42.496;25.620;2023-08-01T03:33:04;5.27;;;3.30;;
17024;SDS011;8629;42.496;25.620;2023-08-01T03:35:31;3.40;;;3.20;;
17024;SDS011;8629;42.496;25.620;2023-08-01T03:37:59;3.30;;;3.10;;
17024;SDS011;8629;42.496;25.620;2023-08-01T03:40:26;3.27;;;3.07;;
17024;SDS011;8629;42.496;25.620;2023-08-01T03:42:53;3.53;;;3.23;;
17024;SDS011;8629;42.496;25.620;2023-08-01T03:45:19;3.60;;;3.30;;
17024;SDS011;8629;42.496;25.620;2023-08-01T03:47:46;3.27;;;3.03;;
17024;SDS011;8629;42.496;25.620;2023-08-01T03:50:13;3.93;;;3.63;;
17024;SDS011;8629;42.496;25.620;2023-08-01T03:52:40;5.83;;;3.17;;
17024;SDS011;8629;42.496;25.620;2023-08-01T03:55:09;4.63;;;3.63;;
17024;SDS011;8629;42.496;25.620;2023-08-01T03:57:37;3.70;;;3.40;;
17024;SDS011;8629;42.496;25.620;2023-08-01T04:00:04;3.53;;;3.30;;
17024;SDS011;8629;42.496;25.620;2023-08-01T04:02:38;3.47;;;2.83;;
17024;SDS011;8629;42.496;25.620;2023-08-01T04:05:05;4.43;;;3.20;;
17024;SDS011;8629;42.496;25.620;2023-08-01T04:07:34;6.17;;;3.03;;
17024;SDS011;8629;42.496;25.620;2023-08-01T04:10:00;3.50;;;2.60;;
17024;SDS011;8629;42.496;25.620;2023-08-01T04:12:29;3.37;;;3.13;;
17024;SDS011;8629;42.496;25.620;2023-08-01T04:14:56;3.40;;;3.20;;
17024;SDS011;8629;42.496;25.620;2023-08-01T04:17:23;3.50;;;3.30;;
17024;SDS011;8629;42.496;25.620;2023-08-01T04:19:50;3.03;;;2.73;;
17024;SDS011;8629;42.496;25.620;2023-08-01T04:22:17;3.53;;;3.23;;
17024;SDS011;8629;42.496;25.620;2023-08-01T04:24:44;2.90;;;2.70;;
17024;SDS011;8629;42.496;25.620;2023-08-01T04:27:11;3.60;;;3.30;;
17024;SDS011;8629;42.496;25.620;2023-08-01T04:29:39;3.40;;;3.10;;
17024;SDS011;8629;42.496;25.620;2023-08-01T04:32:06;2.90;;;2.70;;
17024;SDS011;8629;42.496;25.620;2023-08-01T04:34:33;3.17;;;2.93;;
17024;SDS011;8629;42.496;25.620;2023-08-01T04:37:00;3.30;;;3.10;;
17024;SDS011;8629;42.496;25.620;2023-08-01T04:39:27;3.53;;;3.20;;
17024;SDS011;8629;42.496;25.620;2023-08-01T04:41:54;5.07;;;4.07;;
17024;SDS011;8629;42.496;25.620;2023-08-01T04:44:20;3.77;;;2.97;;
17024;SDS011;8629;42.496;25.620;2023-08-01T04:46:49;3.37;;;3.10;;
17024;SDS011;8629;42.496;25.620;2023-08-01T04:49:15;6.90;;;3.30;;
17024;SDS011;8629;42.496;25.620;2023-08-01T04:51:44;9.57;;;3.97;;
17024;SDS011;8629;42.496;25.620;2023-08-01T04:54:11;3.90;;;3.50;;
17024;SDS011;8629;42.496;25.620;2023-08-01T04:56:38;6.47;;;3.13;;
17024;SDS011;8629;42.496;25.620;2023-08-01T04:59:05;3.87;;;3.53;;
17024;SDS011;8629;42.496;25.620;2023-08-01T05:01:32;3.87;;;3.30;;
17024;SDS011;8629;42.496;25.620;2023-08-01T05:04:00;3.10;;;2.90;;
17024;SDS011;8629;42.496;25.620;2023-08-01T05:06:26;3.93;;;3.53;;
17024;SDS011;8629;42.496;25.620;2023-08-01T05:08:54;5.97;;;2.90;;
17024;SDS011;8629;42.496;25.620;2023-08-01T05:11:20;15.67;;;4.03;;
17024;SDS011;8629;42.496;25.620;2023-08-01T05:13:48;5.83;;;3.20;;
17024;SDS011;8629;42.496;25.620;2023-08-01T05:16:15;13.13;;;4.03;;
17024;SDS011;8629;42.496;25.620;2023-08-01T05:18:41;17.57;;;3.90;;
17024;SDS011;8629;42.496;25.620;2023-08-01T05:21:09;7.97;;;3.60;;
17024;SDS011;8629;42.496;25.620;2023-08-01T05:23:36;18.00;;;3.30;;
17024;SDS011;8629;42.496;25.620;2023-08-01T05:26:03;10.43;;;3.57;;
17024;SDS011;8629;42.496;25.620;2023-08-01T05:28:30;5.73;;;2.93;;
17024;SDS011;8629;42.496;25.620;2023-08-01T05:30:56;2.90;;;2.37;;
17024;SDS011;8629;42.496;25.620;2023-08-01T05:33:23;4.33;;;2.83;;
17024;SDS011;8629;42.496;25.620;2023-08-01T05:35:53;3.10;;;2.90;;
17024;SDS011;8629;42.496;25.620;2023-08-01T05:38:21;2.60;;;2.40;;
17024;SDS011;8629;42.496;25.620;2023-08-01T05:40:47;2.87;;;2.67;;
17024;SDS011;8629;42.496;25.620;2023-08-01T05:43:14;3.30;;;3.00;;
17024;SDS011;8629;42.496;25.620;2023-08-01T05:45:41;2.60;;;2.40;;
17024;SDS011;8629;42.496;25.620;2023-08-01T05:48:08;2.53;;;2.33;;
17024;SDS011;8629;42.496;25.620;2023-08-01T05:50:35;3.40;;;3.10;;
17024;SDS011;8629;42.496;25.620;2023-08-01T05:53:03;3.90;;;2.50;;
17024;SDS011;8629;42.496;25.620;2023-08-01T05:55:31;2.80;;;2.40;;
17024;SDS011;8629;42.496;25.620;2023-08-01T05:57:58;2.77;;;2.57;;
17024;SDS011;8629;42.496;25.620;2023-08-01T06:00:25;2.67;;;2.47;;
17024;SDS011;8629;42.496;25.620;2023-08-01T06:02:52;3.67;;;2.60;;
17024;SDS011;8629;42.496;25.620;2023-08-01T06:05:19;2.60;;;2.40;;
17024;SDS011;8629;42.496;25.620;2023-08-01T06:07:46;2.73;;;2.07;;
17024;SDS011;8629;42.496;25.620;2023-08-01T06:10:13;4.23;;;2.60;;
17024;SDS011;8629;42.496;25.620;2023-08-01T06:12:41;3.63;;;2.20;;
17024;SDS011;8629;42.496;25.620;2023-08-01T06:15:08;2.50;;;2.27;;
17024;SDS011;8629;42.496;25.620;2023-08-01T06:17:35;3.00;;;2.33;;
17024;SDS011;8629;42.496;25.620;2023-08-01T06:20:02;2.33;;;2.10;;
17024;SDS011;8629;42.496;25.620;2023-08-01T06:22:30;5.80;;;2.90;;
17024;SDS011;8629;42.496;25.620;2023-08-01T06:24:57;4.70;;;3.10;;
17024;SDS011;8629;42.496;25.620;2023-08-01T06:27:24;3.03;;;2.57;;
17024;SDS011;8629;42.496;25.620;2023-08-01T06:29:52;2.70;;;2.50;;
17024;SDS011;8629;42.496;25.620;2023-08-01T06:32:19;6.33;;;2.70;;
17024;SDS011;8629;42.496;25.620;2023-08-01T06:34:46;6.27;;;2.50;;
17024;SDS011;8629;42.496;25.620;2023-08-01T06:37:13;3.57;;;2.83;;
17024;SDS011;8629;42.496;25.620;2023-08-01T06:39:39;2.47;;;2.30;;
17024;SDS011;8629;42.496;25.620;2023-08-01T06:42:06;2.70;;;2.50;;
17024;SDS011;8629;42.496;25.620;2023-08-01T06:44:33;3.70;;;3.10;;
17024;SDS011;8629;42.496;25.620;2023-08-01T06:47:01;3.77;;;2.70;;
17024;SDS011;8629;42.496;25.620;2023-08-01T06:49:28;2.93;;;2.50;;
17024;SDS011;8629;42.496;25.620;2023-08-01T06:51:55;2.60;;;2.37;;
17024;SDS011;8629;42.496;25.620;2023-08-01T06:54:21;3.07;;;2.77;;
17024;SDS011;8629;42.496;25.620;2023-08-01T06:56:48;2.17;;;1.97;;
17024;SDS011;8629;42.496;25.620;2023-08-01T06:59:15;3.20;;;2.20;;
17024;SDS011;8629;42.496;25.620;2023-08-01T07:01:42;2.67;;;2.40;;
17024;SDS011;8629;42.496;25.620;2023-08-01T07:04:10;2.90;;;2.70;;
17024;SDS011;8629;42.496;25.620;2023-08-01T07:06:37;4.17;;;2.43;;
17024;SDS011;8629;42.496;25.620;2023-08-01T07:09:04;3.10;;;2.20;;
17024;SDS011;8629;42.496;25.620;2023-08-01T07:11:31;4.27;;;2.80;;
17024;SDS011;8629;42.496;25.620;2023-08-01T07:13:58;4.80;;;2.50;;
17024;SDS011;8629;42.496;25.620;2023-08-01T07:16:26;2.60;;;2.40;;
17024;SDS011;8629;42.496;25.620;2023-08-01T07:18:54;2.80;;;2.50;;
17024;SDS011;8629;42.496;25.620;2023-08-01T07:21:23;2.60;;;2.40;;
17024;SDS011;8629;42.496;25.620;2023-08-01T07:23:50;3.17;;;2.20;;
17024;SDS011;8629;42.496;25.620;2023-08-01T07:26:17;2.80;;;2.40;;
17024;SDS011;8629;42.496;25.620;2023-08-01T07:28:45;1.90;;;1.80;;
17024;SDS011;8629;42.496;25.620;2023-08-01T07:31:12;2.20;;;2.00;;
17024;SDS011;8629;42.496;25.620;2023-08-01T07:33:39;3.33;;;2.33;;
17024;SDS011;8629;42.496;25.620;2023-08-01T07:36:05;2.60;;;2.40;;
17024;SDS011;8629;42.496;25.620;2023-08-01T07:38:33;2.45;;;2.25;;
17024;SDS011;8629;42.496;25.620;2023-08-01T07:41:01;1.90;;;1.80;;
17024;SDS011;8629;42.496;25.620;2023-08-01T07:43:28;2.47;;;2.27;;
17024;SDS011;8629;42.496;25.620;2023-08-01T07:45:56;2.47;;;2.25;;
17024;SDS011;8629;42.496;25.620;2023-08-01T07:48:23;2.15;;;2.00;;
17024;SDS011;8629;42.496;25.620;2023-08-01T07:50:50;2.93;;;2.67;;
17024;SDS011;8629;42.496;25.620;2023-08-01T07:53:17;2.43;;;2.23;;
17024;SDS011;8629;42.496;25.620;2023-08-01T07:55:45;2.60;;;2.40;;
17024;SDS011;8629;42.496;25.620;2023-08-01T07:58:12;2.50;;;2.30;;
17024;SDS011;8629;42.496;25.620;2023-08-01T08:00:39;2.50;;;2.30;;
17024;SDS011;8629;42.496;25.620;2023-08-01T08:03:06;2.70;;;2.50;;
17024;SDS011;8629;42.496;25.620;2023-08-01T08:05:33;2.50;;;2.30;;
17024;SDS011;8629;42.496;25.620;2023-08-01T08:08:03;2.73;;;2.53;;
17024;SDS011;8629;42.496;25.620;2023-08-01T08:10:30;2.17;;;2.03;;
17024;SDS011;8629;42.496;25.620;2023-08-01T08:12:58;2.57;;;2.37;;
17024;SDS011;8629;42.496;25.620;2023-08-01T08:15:26;3.78;;;2.70;;
17024;SDS011;8629;42.496;25.620;2023-08-01T08:17:52;2.70;;;2.50;;
17024;SDS011;8629;42.496;25.620;2023-08-01T08:20:19;3.17;;;2.88;;
17024;SDS011;8629;42.496;25.620;2023-08-01T08:22:46;5.10;;;3.97;;
17024;SDS011;8629;42.496;25.620;2023-08-01T08:25:13;4.30;;;3.78;;
17024;SDS011;8629;42.496;25.620;2023-08-01T08:27:39;4.00;;;3.70;;
17024;SDS011;8629;42.496;25.620;2023-08-01T08:30:08;4.88;;;4.47;;
17024;SDS011;8629;42.496;25.620;2023-08-01T08:32:35;7.35;;;5.97;;
17024;SDS011;8629;42.496;25.620;2023-08-01T08:35:03;5.40;;;5.00;;
17024;SDS011;8629;42.496;25.620;2023-08-01T08:37:31;4.28;;;3.97;;
17024;SDS011;8629;42.496;25.620;2023-08-01T08:39:57;6.18;;;4.22;;
17024;SDS011;8629;42.496;25.620;2023-08-01T08:42:24;6.13;;;5.45;;
17024;SDS011;8629;42.496;25.620;2023-08-01T08:44:54;7.10;;;6.50;;
17024;SDS011;8629;42.496;25.620;2023-08-01T08:47:24;6.30;;;5.05;;
17024;SDS011;8629;42.496;25.620;2023-08-01T08:49:52;6.20;;;5.70;;
17024;SDS011;8629;42.496;25.620;2023-08-01T08:52:22;6.75;;;5.40;;
17024;SDS011;8629;42.496;25.620;2023-08-01T08:54:49;6.05;;;5.47;;
17024;SDS011;8629;42.496;25.620;2023-08-01T08:57:16;6.25;;;5.65;;
17024;SDS011;8629;42.496;25.620;2023-08-01T08:59:45;7.50;;;6.38;;
17024;SDS011;8629;42.496;25.620;2023-08-01T09:02:13;6.70;;;6.07;;
17024;SDS011;8629;42.496;25.620;2023-08-01T09:04:42;6.18;;;5.70;;
17024;SDS011;8629;42.496;25.620;2023-08-01T09:07:10;6.75;;;6.15;;
17024;SDS011;8629;42.496;25.620;2023-08-01T09:09:38;6.20;;;5.70;;
17024;SDS011;8629;42.496;25.620;2023-08-01T09:12:05;6.85;;;6.25;;
17024;SDS011;8629;42.496;25.620;2023-08-01T09:14:34;6.93;;;6.03;;
17024;SDS011;8629;42.496;25.620;2023-08-01T09:17:07;8.10;;;6.40;;
17024;SDS011;8629;42.496;25.620;2023-08-01T09:19:35;6.43;;;5.82;;
17024;SDS011;8629;42.496;25.620;2023-08-01T09:22:09;7.22;;;6.53;;
17024;SDS011;8629;42.496;25.620;2023-08-01T09:24:36;7.15;;;6.55;;
17024;SDS011;8629;42.496;25.620;2023-08-01T09:27:03;6.35;;;5.85;;
17024;SDS011;8629;42.496;25.620;2023-08-01T09:29:31;7.75;;;6.95;;
17024;SDS011;8629;42.496;25.620;2023-08-01T09:31:57;6.47;;;5.90;;
17024;SDS011;8629;42.496;25.620;2023-08-01T09:34:26;6.88;;;6.28;;
17024;SDS011;8629;42.496;25.620;2023-08-01T09:36:57;7.30;;;6.70;;
17024;SDS011;8629;42.496;25.620;2023-08-01T09:39:27;6.18;;;5.68;;
17024;SDS011;8629;42.496;25.620;2023-08-01T09:41:55;7.05;;;6.45;;
17024;SDS011;8629;42.496;25.620;2023-08-01T09:44:22;6.68;;;5.28;;
17024;SDS011;8629;42.496;25.620;2023-08-01T09:46:55;5.53;;;5.13;;
17024;SDS011;8629;42.496;25.620;2023-08-01T09:49:22;6.72;;;6.15;;
17024;SDS011;8629;42.496;25.620;2023-08-01T09:51:49;7.00;;;6.40;;
17024;SDS011;8629;42.496;25.620;2023-08-01T09:54:17;7.10;;;5.50;;
17024;SDS011;8629;42.496;25.620;2023-08-01T09:56:47;6.05;;;5.55;;
17024;SDS011;8629;42.496;25.620;2023-08-01T09:59:16;7.72;;;5.63;;
17024;SDS011;8629;42.496;25.620;2023-08-01T10:01:45;6.07;;;5.57;;
17024;SDS011;8629;42.496;25.620;2023-08-01T10:04:15;5.68;;;5.07;;
17024;SDS011;8629;42.496;25.620;2023-08-01T10:06:46;5.30;;;4.90;;
17024;SDS011;8629;42.496;25.620;2023-08-01T10:09:14;6.75;;;5.70;;
17024;SDS011;8629;42.496;25.620;2023-08-01T10:11:44;6.50;;;5.90;;
17024;SDS011;8629;42.496;25.620;2023-08-01T10:14:13;5.72;;;5.22;;
17024;SDS011;8629;42.496;25.620;2023-08-01T10:16:40;6.10;;;5.60;;
17024;SDS011;8629;42.496;25.620;2023-08-01T10:19:08;5.68;;;5.18;;
17024;SDS011;8629;42.496;25.620;2023-08-01T10:21:37;5.78;;;5.28;;
17024;SDS011;8629;42.496;25.620;2023-08-01T10:24:04;6.35;;;5.72;;
17024;SDS011;8629;42.496;25.620;2023-08-01T10:26:32;5.30;;;4.90;;
17024;SDS011;8629;42.496;25.620;2023-08-01T10:29:00;5.47;;;5.07;;
17024;SDS011;8629;42.496;25.620;2023-08-01T10:31:27;6.00;;;5.50;;
17024;SDS011;8629;42.496;25.620;2023-08-01T10:34:03;6.15;;;5.65;;
17024;SDS011;8629;42.496;25.620;2023-08-01T10:36:30;5.95;;;5.38;;
17024;SDS011;8629;42.496;25.620;2023-08-01T10:38:58;5.90;;;5.40;;
17024;SDS011;8629;42.496;25.620;2023-08-01T10:41:26;5.43;;;5.03;;
17024;SDS011;8629;42.496;25.620;2023-08-01T10:44:05;5.53;;;5.03;;
17024;SDS011;8629;42.496;25.620;2023-08-01T10:46:45;5.75;;;5.10;;
17024;SDS011;8629;42.496;25.620;2023-08-01T10:49:16;11.07;;;6.00;;
17024;SDS011;8629;42.496;25.620;2023-08-01T10:51:44;5.57;;;5.07;;
17024;SDS011;8629;42.496;25.620;2023-08-01T10:54:20;5.85;;;5.35;;
17024;SDS011;8629;42.496;25.620;2023-08-01T10:56:48;5.90;;;5.40;;
17024;SDS011;8629;42.496;25.620;2023-08-01T10:59:17;6.18;;;5.60;;
17024;SDS011;8629;42.496;25.620;2023-08-01T11:01:45;5.50;;;5.00;;
17024;SDS011;8629;42.496;25.620;2023-08-01T11:04:13;5.72;;;5.32;;
17024;SDS011;8629;42.496;25.620;2023-08-01T11:06:44;5.03;;;4.63;;
17024;SDS011;8629;42.496;25.620;2023-08-01T11:09:15;5.88;;;5.47;;
17024;SDS011;8629;42.496;25.620;2023-08-01T11:11:44;5.50;;;5.10;;
17024;SDS011;8629;42.496;25.620;2023-08-01T11:14:11;5.65;;;5.15;;
17024;SDS011;8629;42.496;25.620;2023-08-01T11:16:40;5.45;;;5.03;;
17024;SDS011;8629;42.496;25.620;2023-08-01T11:19:16;5.35;;;5.00;;
17024;SDS011;8629;42.496;25.620;2023-08-01T11:21:46;5.32;;;4.93;;
17024;SDS011;8629;42.496;25.620;2023-08-01T11:24:13;5.00;;;4.70;;
17024;SDS011;8629;42.496;25.620;2023-08-01T11:26:40;5.57;;;5.05;;
17024;SDS011;8629;42.496;25.620;2023-08-01T11:29:08;5.00;;;4.47;;
17024;SDS011;8629;42.496;25.620;2023-08-01T11:31:35;4.93;;;4.53;;
17024;SDS011;8629;42.496;25.620;2023-08-01T11:34:04;4.95;;;4.55;;
17024;SDS011;8629;42.496;25.620;2023-08-01T11:36:33;6.82;;;4.95;;
17024;SDS011;8629;42.496;25.620;2023-08-01T11:39:00;5.07;;;4.68;;
17024;SDS011;8629;42.496;25.620;2023-08-01T11:41:27;5.78;;;5.13;;
17024;SDS011;8629;42.496;25.620;2023-08-01T11:43:54;4.80;;;4.45;;
17024;SDS011;8629;42.496;25.620;2023-08-01T11:46:22;5.80;;;5.30;;
17024;SDS011;8629;42.496;25.620;2023-08-01T11:48:49;5.15;;;4.72;;
17024;SDS011;8629;42.496;25.620;2023-08-01T11:51:19;5.47;;;4.85;;
17024;SDS011;8629;42.496;25.620;2023-08-01T11:53:46;5.63;;;5.13;;
17024;SDS011;8629;42.496;25.620;2023-08-01T11:56:22;5.13;;;4.72;;
17024;SDS011;8629;42.496;25.620;2023-08-01T11:58:49;4.07;;;3.78;;
17024;SDS011;8629;42.496;25.620;2023-08-01T12:01:16;4.78;;;4.38;;
17024;SDS011;8629;42.496;25.620;2023-08-01T12:03:43;5.60;;;5.20;;
17024;SDS011;8629;42.496;25.620;2023-08-01T12:06:10;5.22;;;4.63;;
17024;SDS011;8629;42.496;25.620;2023-08-01T12:08:40;5.15;;;4.65;;
17024;SDS011;8629;42.496;25.620;2023-08-01T12:11:17;6.68;;;4.75;;
17024;SDS011;8629;42.496;25.620;2023-08-01T12:13:59;5.00;;;4.60;;
17024;SDS011;8629;42.496;25.620;2023-08-01T12:16:27;5.82;;;5.38;;
17024;SDS011;8629;42.496;25.620;2023-08-01T12:18:54;4.97;;;4.55;;
17024;SDS011;8629;42.496;25.620;2023-08-01T12:21:21;4.65;;;4.35;;
17024;SDS011;8629;42.496;25.620;2023-08-01T12:23:49;5.22;;;4.82;;
17024;SDS011;8629;42.496;25.620;2023-08-01T12:26:15;5.88;;;5.38;;
17024;SDS011;8629;42.496;25.620;2023-08-01T12:28:44;5.18;;;4.72;;
17024;SDS011;8629;42.496;25.620;2023-08-01T12:31:15;4.95;;;4.55;;
17024;SDS011;8629;42.496;25.620;2023-08-01T12:33:42;4.70;;;4.30;;
17024;SDS011;8629;42.496;25.620;2023-08-01T12:36:09;7.70;;;5.45;;
17024;SDS011;8629;42.496;25.620;2023-08-01T12:38:36;5.20;;;4.80;;
17024;SDS011;8629;42.496;25.620;2023-08-01T12:41:04;5.65;;;5.10;;
17024;SDS011;8629;42.496;25.620;2023-08-01T12:43:31;4.40;;;4.10;;
17024;SDS011;8629;42.496;25.620;2023-08-01T12:45:58;5.15;;;4.68;;
17024;SDS011;8629;42.496;25.620;2023-08-01T12:48:26;5.03;;;4.57;;
17024;SDS011;8629;42.496;25.620;2023-08-01T12:50:53;5.25;;;4.78;;
17024;SDS011;8629;42.496;25.620;2023-08-01T12:53:20;4.80;;;4.40;;
17024;SDS011;8629;42.496;25.620;2023-08-01T12:55:47;4.93;;;4.50;;
17024;SDS011;8629;42.496;25.620;2023-08-01T12:58:16;5.20;;;4.80;;
17024;SDS011;8629;42.496;25.620;2023-08-01T13:00:45;4.47;;;4.18;;
17024;SDS011;8629;42.496;25.620;2023-08-01T13:03:12;5.25;;;4.75;;
17024;SDS011;8629;42.496;25.620;2023-08-01T13:05:39;5.03;;;4.60;;
17024;SDS011;8629;42.496;25.620;2023-08-01T13:08:07;4.82;;;4.32;;
17024;SDS011;8629;42.496;25.620;2023-08-01T13:10:35;4.28;;;3.97;;
17024;SDS011;8629;42.496;25.620;2023-08-01T13:13:02;4.72;;;4.03;;
17024;SDS011;8629;42.496;25.620;2023-08-01T13:15:33;4.82;;;4.43;;
17024;SDS011;8629;42.496;25.620;2023-08-01T13:17:59;8.57;;;5.03;;
17024;SDS011;8629;42.496;25.620;2023-08-01T13:20:27;5.10;;;4.63;;
17024;SDS011;8629;42.496;25.620;2023-08-01T13:22:53;4.70;;;4.30;;
17024;SDS011;8629;42.496;25.620;2023-08-01T13:25:23;4.25;;;3.95;;
17024;SDS011;8629;42.496;25.620;2023-08-01T13:27:52;4.90;;;4.50;;
17024;SDS011;8629;42.496;25.620;2023-08-01T13:30:19;6.60;;;4.43;;
17024;SDS011;8629;42.496;25.620;2023-08-01T13:32:47;6.00;;;4.93;;
17024;SDS011;8629;42.496;25.620;2023-08-01T13:35:14;5.93;;;4.35;;
17024;SDS011;8629;42.496;25.620;2023-08-01T13:37:41;5.57;;;5.18;;
17024;SDS011;8629;42.496;25.620;2023-08-01T13:40:08;4.82;;;4.40;;
17024;SDS011;8629;42.496;25.620;2023-08-01T13:42:36;5.00;;;4.60;;
17024;SDS011;8629;42.496;25.620;2023-08-01T13:45:04;4.90;;;4.50;;
17024;SDS011;8629;42.496;25.620;2023-08-01T13:47:31;5.22;;;4.07;;
17024;SDS011;8629;42.496;25.620;2023-08-01T13:50:00;4.38;;;3.97;;
17024;SDS011;8629;42.496;25.620;2023-08-01T13:52:26;4.53;;;4.13;;
17024;SDS011;8629;42.496;25.620;2023-08-01T13:54:53;4.70;;;4.40;;
17024;SDS011;8629;42.496;25.620;2023-08-01T13:57:20;4.85;;;4.45;;
17024;SDS011;8629;42.496;25.620;2023-08-01T13:59:48;4.72;;;4.32;;
17024;SDS011;8629;42.496;25.620;2023-08-01T14:02:15;5.00;;;4.60;;
17024;SDS011;8629;42.496;25.620;2023-08-01T14:04:43;9.75;;;4.32;;
17024;SDS011;8629;42.496;25.620;2023-08-01T14:07:11;4.53;;;4.22;;
17024;SDS011;8629;42.496;25.620;2023-08-01T14:09:38;4.60;;;3.83;;
17024;SDS011;8629;42.496;25.620;2023-08-01T14:12:05;4.30;;;4.00;;
17024;SDS011;8629;42.496;25.620;2023-08-01T14:14:33;4.60;;;4.25;;
17024;SDS011;8629;42.496;25.620;2023-08-01T14:16:59;4.50;;;4.20;;
17024;SDS011;8629;42.496;25.620;2023-08-01T14:19:26;4.70;;;4.15;;
17024;SDS011;8629;42.496;25.620;2023-08-01T14:21:55;4.82;;;4.43;;
17024;SDS011;8629;42.496;25.620;2023-08-01T14:24:24;4.50;;;4.20;;
17024;SDS011;8629;42.496;25.620;2023-08-01T14:26:52;4.97;;;4.60;;
17024;SDS011;8629;42.496;25.620;2023-08-01T14:29:19;5.38;;;4.35;;
17024;SDS011;8629;42.496;25.620;2023-08-01T14:31:47;4.57;;;4.18;;
17024;SDS011;8629;42.496;25.620;2023-08-01T14:34:15;4.43;;;4.13;;
17024;SDS011;8629;42.496;25.620;2023-08-01T14:36:43;4.78;;;4.38;;
17024;SDS011;8629;42.496;25.620;2023-08-01T14:39:10;5.03;;;4.63;;
17024;SDS011;8629;42.496;25.620;2023-08-01T14:41:39;4.53;;;4.15;;
17024;SDS011;8629;42.496;25.620;2023-08-01T14:44:06;4.50;;;4.15;;
17024;SDS011;8629;42.496;25.620;2023-08-01T14:46:33;4.45;;;4.03;;
17024;SDS011;8629;42.496;25.620;2023-08-01T14:49:02;4.70;;;4.30;;
17024;SDS011;8629;42.496;25.620;2023-08-01T14:51:29;4.47;;;4.07;;